Northeast Iowa Regional Airport Charles City US
ICAO: KCCY
IATA: CCY
Category: Medium
Scheduled Services: No

Elevation: 1125 ft
TransAlt. 18000 ft.

Airport Communications:
WATERLOO APP/DEP:118.9
AWOS 3:125.525
FORT DODGE RDO:122.4
CTAF/UNICOM:122.8

KCCY Zoom In..

Runways:

(A) RW 04 length 2536 ft width 160 ft
LOC 108.30 / hdg 42

(B) RW 12 length 4000 ft width 75 ft
LOC 108.30 / hdg 122

(C) RW 18 length 1780 ft width 170 ft
LOC 108.30 / hdg 177

(D) RW 22 length 2536 ft width 160 ft
LOC 108.30 / hdg 222

(E) RW 30 length 4000 ft width 75 ft
LOC 108.30 / hdg 302

(F) RW 36 length 1780 ft width 170 ft
LOC 108.30 / hdg 357

Location; KCCY
Day. 19 / Time. 21.15 Zulu
* Altimeter: 29.74
* Temperature: 20° c. 68°f.
* Wind from: 160° Speed 10 kn with Gusts up to 19 kn.
Dewpoint: 18° c.
Visibility: 10 Statute Miles.
Clouds: Overcast 1100 ft.

KCCY 192115Z AUTO 16010G19KT 10SM OVC011 20/18 A2974 RMK AO2


Wind From 160°
Speed 10 kn.

 
 
jpsmedia.com for Web Design worldairports.se 2018   terms of use